Time;durP1;ratioP1;P1;durP2;ratioP2;P2;SDS_P1;SDS_P2;PMS_P1;PMS_P2;Temp;Humidity;BMP_temperature;BMP_pressure;BME280_temperature;BME280_humidity;BME280_pressure;Samples;Min_cycle;Max_cycle;Signal;HPM_P1;HPM_P2
2022/07/31 00:00:23;;;;;;;4.63;2.10;;;;;;;21.75;54.22;100296.13;4967290;28;20220;-74
2022/07/31 00:02:48;;;;;;;4.30;2.00;;;;;;;21.75;54.23;100301.34;4987523;28;20587;-74
2022/07/31 00:05:13;;;;;;;2.97;2.17;;;;;;;21.76;55.41;100298.56;4973327;28;20557;-74
2022/07/31 00:07:39;;;;;;;3.40;1.90;;;;;;;21.73;54.71;100303.28;4973583;28;20212;-74
2022/07/31 00:10:05;;;;;;;2.97;2.10;;;;;;;21.67;54.23;100304.72;4962886;28;20180;-73
2022/07/31 00:12:31;;;;;;;2.07;1.80;;;;;;;21.63;54.38;100297.31;4989109;28;20271;-74
2022/07/31 00:14:56;;;;;;;2.43;1.77;;;;;;;21.50;54.27;100300.31;4973160;28;20274;-73
2022/07/31 00:17:21;;;;;;;5.13;2.20;;;;;;;21.29;55.12;100299.59;4973566;28;20187;-73
2022/07/31 00:19:47;;;;;;;2.13;1.93;;;;;;;21.27;55.82;100298.94;4974224;28;20179;-74
2022/07/31 00:22:12;;;;;;;2.20;2.00;;;;;;;21.39;55.31;100294.31;4979562;28;20270;-73
2022/07/31 00:24:38;;;;;;;2.23;1.77;;;;;;;21.46;56.29;100284.09;4973546;28;20282;-74
2022/07/31 00:27:04;;;;;;;2.87;2.07;;;;;;;21.52;56.21;100286.09;4973007;28;20235;-74
2022/07/31 00:29:29;;;;;;;4.13;2.03;;;;;;;21.54;56.33;100280.69;4973964;28;20194;-74
2022/07/31 00:31:55;;;;;;;3.23;2.20;;;;;;;21.49;56.45;100285.56;4978917;28;20789;-74
2022/07/31 00:34:21;;;;;;;2.57;1.87;;;;;;;21.16;56.69;100282.63;4975234;28;20188;-74
2022/07/31 00:36:46;;;;;;;2.10;1.90;;;;;;;20.87;59.81;100281.03;4972981;28;20284;-74
2022/07/31 00:39:12;;;;;;;2.53;1.90;;;;;;;20.85;61.62;100280.34;4974739;28;20192;-74
2022/07/31 00:41:41;;;;;;;4.23;2.30;;;;;;;20.87;60.90;100274.00;4962686;28;20286;-74
2022/07/31 00:44:06;;;;;;;2.03;1.70;;;;;;;20.85;61.62;100272.50;4976575;28;20264;-74
2022/07/31 00:46:31;;;;;;;3.43;2.20;;;;;;;20.92;60.66;100282.22;4974204;28;20255;-74
2022/07/31 00:48:57;;;;;;;4.07;2.23;;;;;;;20.96;60.64;100280.16;4972226;28;20563;-74
2022/07/31 00:51:22;;;;;;;4.70;2.57;;;;;;;20.80;61.96;100271.16;4965623;28;20293;-73
2022/07/31 00:53:47;;;;;;;3.37;1.90;;;;;;;20.75;61.85;100276.00;4979013;28;20639;-74
2022/07/31 00:56:13;;;;;;;3.93;2.00;;;;;;;20.75;62.07;100273.41;4973573;28;20176;-73
2022/07/31 00:58:38;;;;;;;4.40;2.10;;;;;;;20.81;61.20;100279.81;4973383;28;20187;-72
2022/07/31 01:01:03;;;;;;;4.60;2.03;;;;;;;20.92;60.85;100282.22;4966147;28;20234;-73
2022/07/31 01:03:30;;;;;;;4.83;2.10;;;;;;;20.78;62.34;100278.31;4980697;28;20208;-73
2022/07/31 01:05:55;;;;;;;3.30;1.73;;;;;;;20.73;62.58;100280.56;4972512;28;20192;-74
2022/07/31 01:08:20;;;;;;;3.97;2.23;;;;;;;20.70;63.65;100270.38;4972052;28;20270;-74
2022/07/31 01:10:50;;;;;;;2.90;1.97;;;;;;;20.71;63.43;100272.03;4965034;28;20242;-73
2022/07/31 01:13:30;;;;;;;4.10;1.90;;;;;;;20.72;61.51;100272.88;4988299;28;20654;-73
2022/07/31 01:15:58;;;;;;;5.77;2.03;;;;;;;20.77;61.42;100268.84;4972617;28;20593;-73
2022/07/31 01:18:26;;;;;;;3.60;2.20;;;;;;;20.77;61.15;100270.63;4973467;28;20191;-73
2022/07/31 01:20:56;;;;;;;3.53;2.30;;;;;;;20.76;60.86;100264.59;4965148;28;20250;-74
2022/07/31 01:23:51;;;;;;;4.23;2.10;;;;;;;20.63;61.32;100266.69;4972192;28;20191;-74
2022/07/31 01:26:49;;;;;;;5.30;2.10;;;;;;;20.54;61.48;100265.78;4989961;28;20733;-73
2022/07/31 01:29:27;;;;;;;4.57;2.13;;;;;;;20.45;61.94;100264.00;4989349;28;20539;-73
2022/07/31 01:32:01;;;;;;;3.43;2.17;;;;;;;20.38;62.51;100255.94;4980275;28;20742;-73
2022/07/31 01:34:45;;;;;;;3.90;2.00;;;;;;;20.26;63.69;100262.31;4971117;28;20180;-73
2022/07/31 01:37:16;;;;;;;4.77;2.70;;;;;;;20.21;64.83;100264.53;4986794;28;20282;-73
2022/07/31 01:39:49;;;;;;;5.23;2.30;;;;;;;20.16;65.70;100268.38;4989860;28;20187;-73
2022/07/31 01:42:18;;;;;;;1.90;1.70;;;;;;;20.16;66.22;100270.16;4980124;28;20230;-75
2022/07/31 01:44:47;;;;;;;4.47;2.03;;;;;;;20.18;66.52;100268.25;4990023;28;20187;-74
2022/07/31 01:47:18;;;;;;;3.40;2.13;;;;;;;20.18;66.66;100270.03;4990051;28;20203;-74
2022/07/31 01:49:46;;;;;;;2.37;2.00;;;;;;;20.23;67.26;100265.19;4972591;28;20600;-73
2022/07/31 01:52:13;;;;;;;3.20;2.10;;;;;;;20.26;67.37;100262.31;4980326;28;20258;-73
2022/07/31 01:54:39;;;;;;;2.63;2.17;;;;;;;20.27;67.82;100256.94;4970332;28;20271;-74
2022/07/31 01:57:07;;;;;;;2.97;1.93;;;;;;;20.26;68.82;100244.84;4990032;28;20625;-73
2022/07/31 01:59:36;;;;;;;2.53;2.03;;;;;;;20.22;67.95;100253.09;4990294;28;20270;-74
2022/07/31 02:02:03;;;;;;;2.20;2.00;;;;;;;20.17;67.43;100245.72;4977578;28;20282;-73
2022/07/31 02:04:29;;;;;;;2.27;1.93;;;;;;;20.12;67.74;100243.50;4987964;28;20192;-73
2022/07/31 02:06:55;;;;;;;4.23;1.97;;;;;;;20.05;68.22;100241.63;4987752;28;20203;-73
2022/07/31 02:09:23;;;;;;;2.97;2.00;;;;;;;19.97;68.82;100237.09;4971070;28;20196;-74
2022/07/31 02:11:50;;;;;;;3.67;2.67;;;;;;;19.77;70.21;100239.72;4965000;28;20262;-73
2022/07/31 02:14:18;;;;;;;2.47;2.10;;;;;;;19.67;71.29;100241.50;4987559;28;20246;-73
2022/07/31 02:16:47;;;;;;;2.53;2.17;;;;;;;19.60;71.76;100240.44;4990655;28;20176;-73
2022/07/31 02:19:13;;;;;;;5.03;2.23;;;;;;;19.60;71.48;100246.47;4974998;28;20184;-74
2022/07/31 02:21:40;;;;;;;3.90;2.50;;;;;;;19.51;71.83;100255.97;4979075;28;20223;-74
2022/07/31 02:24:05;;;;;;;6.07;2.60;;;;;;;19.46;72.06;100245.13;4979026;28;20182;-74
2022/07/31 02:26:33;;;;;;;2.87;2.20;;;;;;;19.42;71.53;100242.91;4975419;28;20294;-74
2022/07/31 02:28:59;;;;;;;2.97;2.40;;;;;;;19.39;71.65;100243.19;4974828;28;20184;-74
2022/07/31 02:31:26;;;;;;;2.47;2.27;;;;;;;19.33;72.28;100244.56;4976982;28;20736;-74
2022/07/31 02:33:52;;;;;;;2.33;1.90;;;;;;;19.30;72.82;100244.81;4991319;28;20631;-74
2022/07/31 02:36:21;;;;;;;2.40;2.10;;;;;;;19.31;73.33;100246.47;4976285;28;20263;-74
2022/07/31 02:38:48;;;;;;;5.67;2.00;;;;;;;19.29;73.28;100238.78;4976092;28;20317;-74
2022/07/31 02:41:16;;;;;;;3.07;2.17;;;;;;;19.26;73.77;100241.66;4970862;28;20342;-74
2022/07/31 02:43:43;;;;;;;3.77;2.40;;;;;;;19.28;74.02;100246.75;4991344;28;20184;-74
2022/07/31 02:46:11;;;;;;;3.17;2.30;;;;;;;19.25;75.39;100242.66;4974956;28;20199;-73
2022/07/31 02:48:37;;;;;;;2.37;2.17;;;;;;;19.30;76.21;100245.66;4974536;28;20188;-73
2022/07/31 02:51:03;;;;;;;2.20;1.93;;;;;;;19.23;77.09;100241.13;4968087;28;20231;-73
2022/07/31 02:53:29;;;;;;;2.37;2.07;;;;;;;19.21;76.19;100241.25;4990884;28;20180;-74
2022/07/31 02:55:55;;;;;;;2.63;2.33;;;;;;;19.28;76.72;100247.56;4974662;28;20276;-73
2022/07/31 02:58:20;;;;;;;2.90;2.00;;;;;;;19.10;77.52;100242.22;4974173;28;20230;-73
2022/07/31 03:00:46;;;;;;;3.33;2.50;;;;;;;19.15;77.40;100241.78;4961041;28;20230;-73
2022/07/31 03:03:11;;;;;;;2.63;2.10;;;;;;;19.01;78.62;100235.19;4990453;28;20643;-72
2022/07/31 03:05:37;;;;;;;4.10;2.00;;;;;;;19.00;79.05;100234.38;4975765;28;20208;-73
2022/07/31 03:08:03;;;;;;;4.53;2.37;;;;;;;18.93;78.55;100230.66;4974177;28;20204;-73
2022/07/31 03:10:28;;;;;;;4.60;2.43;;;;;;;18.80;78.50;100224.84;4968674;28;20302;-74
2022/07/31 03:12:55;;;;;;;3.13;2.23;;;;;;;18.73;78.24;100232.38;4990332;28;20787;-73
2022/07/31 03:15:24;;;;;;;2.77;2.00;;;;;;;18.67;77.33;100218.09;4966298;28;20172;-73
2022/07/31 03:17:52;;;;;;;2.97;2.27;;;;;;;18.60;77.65;100226.59;4974156;28;20187;-73
2022/07/31 03:20:18;;;;;;;4.20;2.30;;;;;;;18.58;78.17;100221.53;4964968;28;20195;-73
2022/07/31 03:22:44;;;;;;;2.87;2.20;;;;;;;18.57;77.94;100222.47;4988316;28;20195;-73
2022/07/31 03:25:10;;;;;;;2.37;2.17;;;;;;;18.58;78.41;100224.13;4975356;28;20200;-73
2022/07/31 03:27:36;;;;;;;3.47;2.47;;;;;;;18.53;79.67;100226.28;4975034;28;20552;-73
2022/07/31 03:30:03;;;;;;;3.73;2.37;;;;;;;18.52;79.52;100222.06;4975460;28;20188;-73
2022/07/31 03:32:29;;;;;;;2.83;2.57;;;;;;;18.49;78.56;100228.34;4944336;28;20231;-74
2022/07/31 03:34:55;;;;;;;3.63;2.27;;;;;;;18.49;78.23;100228.34;4973864;28;20596;-73
2022/07/31 03:37:20;;;;;;;2.73;1.90;;;;;;;18.48;77.76;100229.31;4974998;28;20184;-73
2022/07/31 03:39:45;;;;;;;4.03;2.00;;;;;;;18.46;77.50;100228.59;4970061;28;20185;-73
2022/07/31 03:42:11;;;;;;;4.07;2.73;;;;;;;18.49;76.76;100222.31;4971045;28;20753;-73
2022/07/31 03:44:39;;;;;;;3.43;2.57;;;;;;;18.49;76.70;100233.56;4973669;28;20180;-73
2022/07/31 03:47:05;;;;;;;4.43;2.30;;;;;;;18.35;77.46;100228.69;4973613;28;20195;-73
2022/07/31 03:49:31;;;;;;;3.10;2.00;;;;;;;18.31;78.33;100220.31;4988823;28;20194;-73
2022/07/31 03:51:57;;;;;;;2.73;2.40;;;;;;;18.38;78.75;100221.44;4966956;28;20599;-73
2022/07/31 03:54:23;;;;;;;3.30;2.40;;;;;;;18.45;78.24;100220.94;4989893;28;20198;-72
2022/07/31 03:56:50;;;;;;;3.83;2.70;;;;;;;18.52;76.47;100222.06;4973287;28;20659;-73
2022/07/31 03:59:17;;;;;;;2.90;2.10;;;;;;;18.56;76.48;100220.81;4989119;28;20172;-73
2022/07/31 04:01:43;;;;;;;3.23;2.27;;;;;;;18.69;75.63;100226.63;4966886;28;20321;-73
2022/07/31 04:04:10;;;;;;;2.50;2.10;;;;;;;18.78;75.52;100225.00;4989426;28;20187;-73
2022/07/31 04:06:35;;;;;;;3.17;2.30;;;;;;;18.88;75.88;100227.63;4989244;28;20212;-73
2022/07/31 04:09:01;;;;;;;2.27;2.07;;;;;;;18.94;77.05;100234.09;4972570;28;20204;-73
2022/07/31 04:11:27;;;;;;;4.00;2.13;;;;;;;19.02;76.05;100229.84;4975219;28;20246;-73
2022/07/31 04:13:53;;;;;;;2.53;2.33;;;;;;;19.13;75.45;100230.69;4989168;28;20576;-73
2022/07/31 04:16:18;;;;;;;2.37;2.10;;;;;;;19.18;74.97;100236.31;4972706;28;20188;-73
2022/07/31 04:18:44;;;;;;;3.00;2.20;;;;;;;19.18;74.93;100242.34;4975066;28;20192;-73
2022/07/31 04:21:10;;;;;;;6.73;2.67;;;;;;;19.27;75.37;100240.72;4966323;28;20246;-74
2022/07/31 04:23:36;;;;;;;3.83;2.30;;;;;;;19.34;74.02;100238.41;4980557;28;20195;-74
2022/07/31 04:26:02;;;;;;;3.10;2.33;;;;;;;19.45;73.37;100245.22;4972540;28;20235;-74
2022/07/31 04:28:27;;;;;;;2.63;2.37;;;;;;;19.50;73.59;100240.44;4972780;28;20234;-74
2022/07/31 04:30:53;;;;;;;2.83;2.60;;;;;;;19.59;73.07;100241.41;4970020;28;20226;-74
2022/07/31 04:33:18;;;;;;;3.10;2.53;;;;;;;19.54;72.69;100241.00;4982521;28;20271;-74
2022/07/31 04:35:44;;;;;;;4.27;2.50;;;;;;;19.55;73.01;100238.25;4984267;28;20184;-74
2022/07/31 04:38:10;;;;;;;3.63;3.03;;;;;;;19.64;72.77;100232.19;4971693;28;20248;-74
2022/07/31 04:40:36;;;;;;;2.53;2.10;;;;;;;19.77;72.33;100236.28;4954059;28;20240;-74
2022/07/31 04:43:01;;;;;;;3.23;2.40;;;;;;;19.77;71.25;100238.88;4981889;28;20184;-74
2022/07/31 04:45:27;;;;;;;6.23;2.80;;;;;;;19.80;72.78;100244.66;4973796;28;20180;-74
2022/07/31 04:47:52;;;;;;;2.73;2.50;;;;;;;19.83;72.43;100247.03;4973514;28;20271;-74
2022/07/31 04:50:17;;;;;;;5.87;2.50;;;;;;;19.91;70.63;100240.25;4965088;28;20184;-73
2022/07/31 04:52:43;;;;;;;4.20;2.40;;;;;;;20.05;69.08;100254.69;4988202;28;20180;-74
2022/07/31 04:55:08;;;;;;;3.60;2.83;;;;;;;20.14;69.38;100245.97;4972221;28;20191;-74
2022/07/31 04:57:33;;;;;;;3.87;2.70;;;;;;;20.27;67.16;100237.84;4973714;28;20319;-74
2022/07/31 04:59:59;;;;;;;2.70;2.50;;;;;;;20.20;66.07;100242.78;4987589;28;20187;-73
2022/07/31 05:02:24;;;;;;;3.60;2.80;;;;;;;20.22;65.92;100240.03;4978537;28;20268;-74
2022/07/31 05:04:50;;;;;;;2.80;2.60;;;;;;;20.29;65.72;100244.56;4971966;28;20177;-74
2022/07/31 05:07:15;;;;;;;5.03;2.83;;;;;;;20.32;65.24;100246.88;4972012;28;20290;-73
2022/07/31 05:09:40;;;;;;;3.53;2.57;;;;;;;20.44;65.21;100244.91;4971740;28;20199;-74
2022/07/31 05:12:07;;;;;;;6.80;2.73;;;;;;;20.54;65.44;100247.47;4977905;28;20223;-73
2022/07/31 05:14:32;;;;;;;3.43;2.60;;;;;;;20.63;64.81;100243.97;4972025;28;20314;-73
2022/07/31 05:16:57;;;;;;;3.20;2.40;;;;;;;20.69;64.51;100239.97;4972843;28;20267;-73
2022/07/31 05:19:28;;;;;;;2.47;2.27;;;;;;;20.80;62.06;100242.41;4971356;28;20184;-75
2022/07/31 05:21:54;;;;;;;2.50;2.27;;;;;;;20.89;61.75;100232.06;4965201;28;20281;-74
2022/07/31 05:24:21;;;;;;;2.77;2.57;;;;;;;20.68;63.97;100237.47;4971765;28;20186;-74
2022/07/31 05:26:46;;;;;;;3.10;2.57;;;;;;;20.87;63.95;100232.19;4973101;28;20199;-73
2022/07/31 05:29:12;;;;;;;3.00;2.50;;;;;;;21.20;63.50;100239.50;4971768;28;20188;-73
2022/07/31 05:31:37;;;;;;;4.03;2.53;;;;;;;21.56;63.59;100239.53;4964669;28;20391;-73
2022/07/31 05:34:02;;;;;;;2.87;2.10;;;;;;;21.13;62.67;100241.91;4975886;28;20176;-73
2022/07/31 05:36:28;;;;;;;3.13;2.73;;;;;;;21.20;61.50;100234.28;4973612;28;20811;-74
2022/07/31 05:38:53;;;;;;;5.80;2.40;;;;;;;21.28;61.85;100234.38;4971111;28;20212;-73
2022/07/31 05:41:19;;;;;;;3.73;2.13;;;;;;;21.22;59.83;100234.97;4958987;28;20310;-74
2022/07/31 05:43:44;;;;;;;5.77;2.47;;;;;;;21.38;60.16;100236.91;4978286;28;20215;-74
2022/07/31 05:46:12;;;;;;;2.90;2.40;;;;;;;21.46;59.95;100247.44;4971010;28;20207;-74
2022/07/31 05:48:38;;;;;;;3.37;2.30;;;;;;;20.99;60.92;100235.41;4971200;28;20674;-73
2022/07/31 05:51:09;;;;;;;2.33;2.13;;;;;;;20.87;62.14;100234.78;4964621;28;20372;-74
2022/07/31 05:53:35;;;;;;;6.03;2.40;;;;;;;21.12;61.65;100237.66;4971811;28;20176;-74
2022/07/31 05:56:02;;;;;;;3.10;2.60;;;;;;;21.24;63.53;100236.44;4973379;28;20607;-74
2022/07/31 05:58:28;;;;;;;5.17;2.50;;;;;;;21.37;61.96;100236.09;4987305;28;20226;-73
2022/07/31 06:00:53;;;;;;;3.33;3.03;;;;;;;21.46;61.07;100234.38;4964276;28;20228;-74
2022/07/31 06:03:23;;;;;;;6.63;3.87;;;;;;;20.77;61.33;100234.03;4971175;28;20219;-73
2022/07/31 06:05:50;;;;;;;3.30;2.53;;;;;;;20.70;61.90;100232.94;4971067;28;20204;-74
2022/07/31 06:08:15;;;;;;;3.40;2.87;;;;;;;20.95;61.27;100234.06;4987096;28;20695;-72
2022/07/31 06:10:41;;;;;;;4.80;2.53;;;;;;;21.09;59.71;100244.00;4967290;28;20282;-73
2022/07/31 06:13:06;;;;;;;4.90;2.83;;;;;;;21.15;60.90;100247.81;4970840;28;20235;-73
2022/07/31 06:15:32;;;;;;;5.17;2.87;;;;;;;21.57;59.89;100242.00;4987355;28;20274;-73
2022/07/31 06:17:58;;;;;;;4.10;2.30;;;;;;;21.80;58.09;100245.94;4972271;28;20180;-72
2022/07/31 06:20:23;;;;;;;3.10;2.50;;;;;;;21.95;57.08;100249.59;4963334;28;20644;-73
2022/07/31 06:22:49;;;;;;;4.17;2.80;;;;;;;22.00;57.77;100247.34;4987357;28;20194;-73
2022/07/31 06:25:15;;;;;;;4.43;2.57;;;;;;;22.02;58.08;100250.63;4987301;28;20622;-73
2022/07/31 06:27:41;;;;;;;4.80;2.70;;;;;;;21.81;58.54;100251.00;4972785;28;20275;-73
2022/07/31 06:30:07;;;;;;;8.83;2.57;;;;;;;22.15;57.23;100250.22;4963156;28;20266;-73
2022/07/31 06:32:33;;;;;;;4.57;2.90;;;;;;;22.30;56.79;100245.22;4987293;28;20250;-73
2022/07/31 06:34:59;;;;;;;2.87;2.20;;;;;;;22.38;55.67;100247.91;4987171;28;20615;-73
2022/07/31 06:37:25;;;;;;;5.70;2.87;;;;;;;22.35;55.83;100252.59;4987371;28;20215;-74
2022/07/31 06:39:51;;;;;;;2.90;2.60;;;;;;;22.51;54.38;100252.72;4966683;28;20180;-75
2022/07/31 06:42:21;;;;;;;2.87;2.30;;;;;;;22.61;53.88;100257.81;4953629;28;20235;-74
2022/07/31 06:44:47;;;;;;;4.00;2.37;;;;;;;22.65;53.46;100259.16;4970990;28;20191;-74
2022/07/31 06:47:13;;;;;;;5.57;2.27;;;;;;;22.61;53.87;100251.75;4986999;28;20216;-74
2022/07/31 06:49:39;;;;;;;3.53;1.97;;;;;;;22.46;53.33;100257.59;4986609;28;20207;-74
2022/07/31 06:52:05;;;;;;;3.97;2.33;;;;;;;22.59;52.85;100259.78;4979918;28;20698;-74
2022/07/31 06:54:30;;;;;;;5.73;2.27;;;;;;;22.45;53.19;100255.97;4970842;28;20290;-74
2022/07/31 06:56:55;;;;;;;3.57;2.40;;;;;;;22.66;52.20;100259.97;4972134;28;20498;-75
2022/07/31 06:59:21;;;;;;;6.60;2.70;;;;;;;22.94;50.80;100263.16;4971796;28;20196;-74
2022/07/31 07:01:46;;;;;;;3.40;2.50;;;;;;;22.99;50.72;100260.06;4951918;28;20247;-74
2022/07/31 07:04:11;;;;;;;3.93;1.97;;;;;;;22.96;51.19;100257.75;4971800;28;20184;-74
2022/07/31 07:06:37;;;;;;;2.87;2.23;;;;;;;22.98;50.86;100256.59;4975660;28;20682;-74
2022/07/31 07:09:03;;;;;;;3.80;2.47;;;;;;;23.15;52.22;100252.22;4989906;28;20208;-74
2022/07/31 07:11:28;;;;;;;4.33;2.27;;;;;;;23.82;50.41;100250.44;4983993;28;20234;-75
2022/07/31 07:13:54;;;;;;;7.20;2.60;;;;;;;24.43;47.93;100252.56;4974020;28;20263;-75
2022/07/31 07:16:19;;;;;;;3.60;2.20;;;;;;;24.76;47.60;100248.00;4983568;28;20227;-75
2022/07/31 07:18:45;;;;;;;5.50;2.30;;;;;;;24.95;45.69;100254.63;4989928;28;20271;-75
2022/07/31 07:21:11;;;;;;;5.20;2.30;;;;;;;24.93;44.98;100253.16;4983861;28;20231;-75
2022/07/31 07:23:36;;;;;;;4.47;2.40;;;;;;;24.47;44.79;100249.44;4990221;28;20187;-75
2022/07/31 07:26:02;;;;;;;2.60;1.93;;;;;;;24.32;46.41;100249.34;4989949;28;20196;-75
2022/07/31 07:28:27;;;;;;;4.97;2.27;;;;;;;23.88;48.33;100248.91;4974200;28;20196;-75
2022/07/31 07:30:53;;;;;;;6.03;2.77;;;;;;;23.85;48.10;100252.69;4951522;28;20215;-75
2022/07/31 07:33:18;;;;;;;7.33;2.47;;;;;;;23.65;48.93;100252.25;4984096;28;20527;-75
2022/07/31 07:35:43;;;;;;;3.80;2.30;;;;;;;23.71;48.79;100256.03;4975043;28;20246;-73
2022/07/31 07:38:08;;;;;;;3.33;2.23;;;;;;;23.51;48.96;100244.03;4973614;28;20188;-74
2022/07/31 07:40:34;;;;;;;4.17;2.23;;;;;;;23.36;49.67;100241.25;4957926;28;20238;-74
2022/07/31 07:42:59;;;;;;;6.20;2.37;;;;;;;23.52;49.17;100239.63;4983366;28;20180;-74
2022/07/31 07:45:25;;;;;;;2.00;1.90;;;;;;;23.92;47.74;100243.19;4973902;28;20254;-75
2022/07/31 07:47:50;;;;;;;3.60;2.37;;;;;;;23.46;48.12;100241.09;4975473;28;20201;-74
2022/07/31 07:50:16;;;;;;;5.33;2.60;;;;;;;23.40;48.17;100240.94;4965916;28;20238;-74
2022/07/31 07:52:41;;;;;;;4.53;2.07;;;;;;;23.71;47.10;100237.66;4988378;28;20625;-74
2022/07/31 07:55:08;;;;;;;4.20;2.70;;;;;;;23.78;47.42;100239.44;4974723;28;20200;-74
2022/07/31 07:57:36;;;;;;;3.07;2.03;;;;;;;24.24;47.11;100240.66;4973382;28;20180;-74
2022/07/31 08:00:05;;;;;;;3.83;2.07;;;;;;;24.80;45.08;100235.31;4988911;28;20611;-74
2022/07/31 08:02:31;;;;;;;4.87;2.20;;;;;;;25.65;42.94;100236.19;4963530;28;20224;-74
2022/07/31 08:04:57;;;;;;;3.63;2.20;;;;;;;25.70;42.03;100233.84;4974637;28;20278;-76
2022/07/31 08:07:28;;;;;;;5.00;2.43;;;;;;;25.82;42.74;100230.75;4974546;28;20275;-75
2022/07/31 08:09:58;;;;;;;4.53;2.00;;;;;;;25.79;42.28;100237.19;4973870;28;20180;-74
2022/07/31 08:12:25;;;;;;;2.40;2.10;;;;;;;26.72;40.17;100229.66;4979543;28;20282;-75
2022/07/31 08:14:51;;;;;;;4.68;2.03;;;;;;;27.39;39.43;100232.94;4988846;28;20226;-75
2022/07/31 08:17:16;;;;;;;4.78;2.17;;;;;;;27.05;38.62;100229.22;4974252;28;20287;-75
2022/07/31 08:19:42;;;;;;;5.00;2.20;;;;;;;27.01;39.42;100230.59;4973923;28;20612;-74
2022/07/31 08:22:08;;;;;;;3.88;2.08;;;;;;;26.65;39.31;100227.97;4979132;28;20705;-74
2022/07/31 08:24:34;;;;;;;4.68;2.58;;;;;;;26.71;40.40;100221.94;4974284;28;20639;-74
2022/07/31 08:29:44;;;;;;;3.60;2.88;;;;;;;27.03;39.20;100225.94;4974087;28;20227;-74
2022/07/31 08:32:09;;;;;;;5.55;2.63;;;;;;;27.84;38.18;100231.88;4964833;28;20310;-74
2022/07/31 08:34:35;;;;;;;5.68;2.95;;;;;;;28.05;37.59;100224.91;4974091;28;20606;-75
2022/07/31 08:37:00;;;;;;;7.85;2.83;;;;;;;28.77;35.75;100220.88;4972529;28;20180;-74
2022/07/31 08:39:26;;;;;;;4.20;2.35;;;;;;;30.50;32.76;100225.38;4970291;28;20191;-74
2022/07/31 08:41:51;;;;;;;4.85;2.50;;;;;;;30.81;32.17;100218.44;4954345;28;20599;-74
2022/07/31 08:44:17;;;;;;;5.10;2.10;;;;;;;30.91;32.12;100218.78;4973051;28;20615;-75
2022/07/31 08:46:44;;;;;;;4.40;2.28;;;;;;;30.15;31.88;100220.41;4973848;28;20543;-74
2022/07/31 08:49:12;;;;;;;4.32;2.08;;;;;;;30.35;32.05;100221.16;4973632;28;20262;-74
2022/07/31 08:51:38;;;;;;;4.05;2.58;;;;;;;30.56;32.54;100214.75;4975859;28;20227;-73
2022/07/31 08:54:07;;;;;;;6.82;2.30;;;;;;;29.75;33.23;100213.38;4972508;28;20184;-73
2022/07/31 08:56:34;;;;;;;4.97;2.33;;;;;;;29.39;33.66;100209.34;4974104;28;20211;-74
2022/07/31 08:59:00;;;;;;;5.32;2.10;;;;;;;29.67;33.25;100211.75;4972249;28;20638;-74
2022/07/31 09:01:26;;;;;;;1.98;1.73;;;;;;;29.17;34.25;100206.88;4965888;28;20631;-74
2022/07/31 09:03:53;;;;;;;3.50;2.10;;;;;;;30.26;33.95;100204.63;4972457;28;20191;-73
2022/07/31 09:06:18;;;;;;;5.50;2.08;;;;;;;31.40;30.47;100205.75;4973500;28;20746;-74
2022/07/31 09:08:43;;;;;;;3.50;2.20;;;;;;;31.64;30.36;100203.28;4971530;28;20215;-74
2022/07/31 09:11:11;;;;;;;6.38;2.15;;;;;;;31.59;29.73;100209.22;4965660;28;20249;-75
2022/07/31 09:13:37;;;;;;;5.13;2.05;;;;;;;31.06;30.28;100203.34;4971883;28;20223;-75
2022/07/31 09:16:03;;;;;;;3.10;1.83;;;;;;;31.54;31.91;100201.09;4971764;28;20278;-74
2022/07/31 09:18:29;;;;;;;4.35;2.10;;;;;;;30.22;33.31;100194.69;4971588;28;20267;-73
2022/07/31 09:20:57;;;;;;;5.72;2.33;;;;;;;30.34;32.96;100192.16;4981011;28;20334;-74
2022/07/31 09:23:24;;;;;;;5.90;2.70;;;;;;;29.56;33.55;100184.06;4975140;28;20185;-74
2022/07/31 09:25:58;;;;;;;2.63;2.15;;;;;;;28.44;34.50;100186.38;4971231;28;20644;-74
2022/07/31 09:28:51;;;;;;;2.50;2.10;;;;;;;27.76;36.04;100184.44;4971962;28;20176;-73
2022/07/31 09:31:19;;;;;;;4.95;2.00;;;;;;;28.49;35.60;100173.38;4964822;28;20225;-73
2022/07/31 09:33:45;;;;;;;4.60;2.00;;;;;;;28.52;34.96;100170.34;4988019;28;20614;-74
2022/07/31 09:36:11;;;;;;;2.30;1.83;;;;;;;27.57;35.96;100170.13;4971725;28;20192;-73
2022/07/31 09:38:42;;;;;;;4.90;2.00;;;;;;;27.58;36.07;100172.56;4987525;28;20196;-74
2022/07/31 09:41:09;;;;;;;3.50;2.03;;;;;;;27.57;35.43;100170.94;4951436;28;20283;-74
2022/07/31 09:43:34;;;;;;;3.30;1.92;;;;;;;27.52;34.83;100179.44;4971380;28;20536;-74
2022/07/31 09:46:00;;;;;;;4.20;1.90;;;;;;;27.48;35.46;100175.53;4972618;28;20218;-74
2022/07/31 09:48:26;;;;;;;2.42;1.70;;;;;;;28.08;36.24;100171.63;4958176;28;20267;-74
2022/07/31 09:51:03;;;;;;;4.68;2.20;;;;;;;28.60;34.47;100171.97;4968800;28;20322;-74
2022/07/31 09:53:41;;;;;;;2.67;2.15;;;;;;;28.78;34.00;100163.50;4987692;28;20194;-74
2022/07/31 09:56:07;;;;;;;2.97;1.77;;;;;;;28.91;32.91;100154.72;4987344;28;20187;-74
2022/07/31 09:58:32;;;;;;;6.95;2.20;;;;;;;28.60;32.87;100151.59;4971232;28;20195;-75
2022/07/31 10:00:58;;;;;;;2.75;2.20;;;;;;;29.22;31.32;100155.94;4970059;28;20219;-75
2022/07/31 10:03:25;;;;;;;5.32;2.00;;;;;;;30.16;30.44;100153.09;4971432;28;20626;-75
2022/07/31 10:05:50;;;;;;;4.10;2.05;;;;;;;31.33;29.72;100157.16;4971087;28;20688;-75
2022/07/31 10:08:16;;;;;;;6.32;2.53;;;;;;;30.57;29.31;100146.53;4972311;28;20212;-74
2022/07/31 10:10:46;;;;;;;4.25;2.17;;;;;;;31.21;28.70;100154.44;4980143;28;20235;-74
2022/07/31 10:13:17;;;;;;;2.40;1.70;;;;;;;33.39;26.25;100151.91;4982113;28;20694;-75
2022/07/31 10:15:48;;;;;;;4.82;2.22;;;;;;;35.97;22.21;100153.44;4958361;28;20270;-74
2022/07/31 10:18:18;;;;;;;4.88;2.25;;;;;;;34.89;23.95;100147.47;4987173;28;20195;-75
2022/07/31 10:20:54;;;;;;;7.25;2.20;;;;;;;33.61;25.64;100146.72;4967114;28;20231;-74
2022/07/31 10:23:22;;;;;;;3.33;2.40;;;;;;;31.15;29.12;100140.16;4971134;28;20658;-74
2022/07/31 10:25:51;;;;;;;3.60;2.20;;;;;;;33.09;26.81;100122.69;4987343;28;20230;-74
2022/07/31 10:28:18;;;;;;;2.75;2.08;;;;;;;34.53;24.42;100132.69;4970748;28;20706;-74
2022/07/31 10:30:45;;;;;;;3.55;2.78;;;;;;;33.04;27.58;100130.56;4963781;28;20223;-74
2022/07/31 10:33:10;;;;;;;3.97;2.40;;;;;;;31.95;28.69;100119.84;4982058;28;20199;-74
2022/07/31 10:35:45;;;;;;;2.50;2.30;;;;;;;30.18;31.12;100111.22;4972274;28;20558;-74
2022/07/31 10:38:23;;;;;;;7.68;2.60;;;;;;;31.17;31.10;100118.69;4974506;28;20554;-73
2022/07/31 10:41:02;;;;;;;3.45;2.50;;;;;;;31.68;28.60;100114.91;4958974;28;20275;-74
2022/07/31 10:43:36;;;;;;;4.65;3.10;;;;;;;32.57;28.29;100113.47;4971024;28;20631;-74
2022/07/31 10:46:01;;;;;;;6.07;2.47;;;;;;;34.38;25.09;100114.56;4974229;28;20196;-75
2022/07/31 10:48:27;;;;;;;7.07;2.85;;;;;;;35.07;24.40;100113.50;4974884;28;20188;-75
2022/07/31 10:51:02;;;;;;;4.63;2.63;;;;;;;34.27;25.29;100108.22;4972131;28;20694;-74
2022/07/31 10:53:28;;;;;;;5.03;2.33;;;;;;;33.45;26.31;100104.81;4990664;28;20677;-75
2022/07/31 10:56:11;;;;;;;5.00;2.60;;;;;;;31.78;28.79;100097.59;4990653;28;20180;-74
2022/07/31 10:58:51;;;;;;;5.82;2.78;;;;;;;30.79;30.20;100095.72;4973699;28;20192;-74
2022/07/31 11:01:17;;;;;;;4.70;2.75;;;;;;;30.33;31.16;100079.91;4971197;28;20223;-74
2022/07/31 11:03:45;;;;;;;8.90;2.53;;;;;;;29.84;31.67;100082.19;4983070;28;20273;-73
2022/07/31 11:06:14;;;;;;;4.68;2.50;;;;;;;29.59;31.95;100066.22;4975496;28;20293;-74
2022/07/31 11:08:51;;;;;;;7.00;2.72;;;;;;;29.42;32.55;100063.22;4975649;28;20227;-74
2022/07/31 11:11:17;;;;;;;6.63;2.80;;;;;;;29.69;32.77;100060.47;4967703;28;20235;-74
2022/07/31 11:13:51;;;;;;;4.53;2.42;;;;;;;29.51;32.65;100061.13;4990116;28;20250;-73
2022/07/31 11:16:18;;;;;;;5.63;2.60;;;;;;;28.69;33.45;100062.31;4974633;28;21001;-73
2022/07/31 11:18:54;;;;;;;4.15;2.53;;;;;;;28.42;34.16;100061.44;4980272;28;20180;-74
2022/07/31 11:21:29;;;;;;;5.00;2.97;;;;;;;28.52;34.38;100061.88;4975365;28;20231;-73
2022/07/31 11:23:55;;;;;;;3.15;2.22;;;;;;;28.81;34.09;100052.72;4974149;28;20187;-73
2022/07/31 11:26:21;;;;;;;4.13;2.53;;;;;;;28.55;33.96;100053.50;4975225;28;20215;-73